sensor_id;sensor_type;location;lat;lon;timestamp;pressure;altitude;pressure_sealevel;temperature;humidity
26807;BME280;14380;49.910;6.792;2023-09-18T00:01:11;97947.53;;;18.60;100.00
26807;BME280;14380;49.910;6.792;2023-09-18T00:03:38;97939.22;;;18.90;100.00
26807;BME280;14380;49.910;6.792;2023-09-18T00:06:04;97938.22;;;18.91;100.00
26807;BME280;14380;49.910;6.792;2023-09-18T00:08:31;97941.66;;;18.83;100.00
26807;BME280;14380;49.910;6.792;2023-09-18T00:10:58;97935.03;;;18.95;100.00
26807;BME280;14380;49.910;6.792;2023-09-18T00:13:27;97935.00;;;19.13;100.00
26807;BME280;14380;49.910;6.792;2023-09-18T00:15:54;97943.72;;;19.15;100.00
26807;BME280;14380;49.910;6.792;2023-09-18T00:18:21;97943.72;;;19.15;100.00
26807;BME280;14380;49.910;6.792;2023-09-18T00:20:48;97935.09;;;19.30;100.00
26807;BME280;14380;49.910;6.792;2023-09-18T00:23:14;97927.19;;;19.28;100.00
26807;BME280;14380;49.910;6.792;2023-09-18T00:25:41;97927.50;;;19.25;100.00
26807;BME280;14380;49.910;6.792;2023-09-18T00:28:08;97922.69;;;19.29;100.00
26807;BME280;14380;49.910;6.792;2023-09-18T00:30:37;97920.50;;;19.24;100.00
26807;BME280;14380;49.910;6.792;2023-09-18T00:33:08;97924.13;;;19.58;100.00
26807;BME280;14380;49.910;6.792;2023-09-18T00:35:34;97916.03;;;19.33;100.00
26807;BME280;14380;49.910;6.792;2023-09-18T00:38:01;97917.50;;;19.27;100.00
26807;BME280;14380;49.910;6.792;2023-09-18T00:40:29;97921.59;;;19.48;100.00
26807;BME280;14380;49.910;6.792;2023-09-18T00:42:55;97928.78;;;19.56;100.00
26807;BME280;14380;49.910;6.792;2023-09-18T00:45:22;97950.75;;;19.68;100.00
26807;BME280;14380;49.910;6.792;2023-09-18T00:47:50;97982.75;;;19.69;100.00
26807;BME280;14380;49.910;6.792;2023-09-18T00:50:16;98004.81;;;19.63;100.00
26807;BME280;14380;49.910;6.792;2023-09-18T00:52:43;98047.25;;;19.84;100.00
26807;BME280;14380;49.910;6.792;2023-09-18T00:55:09;98037.41;;;19.50;100.00
26807;BME280;14380;49.910;6.792;2023-09-18T00:57:37;98044.25;;;20.63;100.00
26807;BME280;14380;49.910;6.792;2023-09-18T01:00:05;98017.41;;;20.55;100.00
26807;BME280;14380;49.910;6.792;2023-09-18T01:02:32;98049.81;;;20.87;100.00
26807;BME280;14380;49.910;6.792;2023-09-18T01:05:00;98090.22;;;20.85;100.00
26807;BME280;14380;49.910;6.792;2023-09-18T01:07:26;98089.88;;;20.72;100.00
26807;BME280;14380;49.910;6.792;2023-09-18T01:09:53;98053.59;;;20.34;100.00
26807;BME280;14380;49.910;6.792;2023-09-18T01:12:24;98060.94;;;20.16;100.00
26807;BME280;14380;49.910;6.792;2023-09-18T01:14:57;98034.63;;;20.19;100.00
26807;BME280;14380;49.910;6.792;2023-09-18T01:17:30;98024.47;;;20.56;100.00
26807;BME280;14380;49.910;6.792;2023-09-18T01:19:56;98003.34;;;20.61;100.00
26807;BME280;14380;49.910;6.792;2023-09-18T01:24:52;97981.03;;;20.69;100.00
26807;BME280;14380;49.910;6.792;2023-09-18T01:27:19;97953.72;;;20.65;100.00
26807;BME280;14380;49.910;6.792;2023-09-18T01:29:46;97942.00;;;20.42;100.00
26807;BME280;14380;49.910;6.792;2023-09-18T01:32:13;97928.91;;;20.55;100.00
26807;BME280;14380;49.910;6.792;2023-09-18T01:34:42;97916.19;;;20.57;100.00
26807;BME280;14380;49.910;6.792;2023-09-18T01:37:10;97919.38;;;20.44;100.00
26807;BME280;14380;49.910;6.792;2023-09-18T01:39:38;97908.47;;;20.62;100.00
26807;BME280;14380;49.910;6.792;2023-09-18T01:42:07;97905.94;;;20.61;100.00
26807;BME280;14380;49.910;6.792;2023-09-18T01:44:36;97899.28;;;20.32;100.00
26807;BME280;14380;49.910;6.792;2023-09-18T01:47:05;97886.69;;;20.32;100.00
26807;BME280;14380;49.910;6.792;2023-09-18T01:49:33;97878.50;;;20.26;100.00
26807;BME280;14380;49.910;6.792;2023-09-18T01:52:00;97884.53;;;20.28;100.00
26807;BME280;14380;49.910;6.792;2023-09-18T01:54:27;97885.00;;;20.40;100.00
26807;BME280;14380;49.910;6.792;2023-09-18T01:56:55;97886.03;;;20.39;100.00
26807;BME280;14380;49.910;6.792;2023-09-18T01:59:23;97896.44;;;20.25;100.00
26807;BME280;14380;49.910;6.792;2023-09-18T02:01:51;97898.59;;;20.21;100.00
26807;BME280;14380;49.910;6.792;2023-09-18T02:04:18;97893.44;;;20.28;100.00
26807;BME280;14380;49.910;6.792;2023-09-18T02:06:46;97895.75;;;19.98;100.00
26807;BME280;14380;49.910;6.792;2023-09-18T02:09:13;97906.31;;;20.16;100.00
26807;BME280;14380;49.910;6.792;2023-09-18T02:11:41;97904.31;;;20.02;100.00
26807;BME280;14380;49.910;6.792;2023-09-18T02:14:08;97912.00;;;20.30;100.00
26807;BME280;14380;49.910;6.792;2023-09-18T02:16:37;97923.06;;;20.27;100.00
26807;BME280;14380;49.910;6.792;2023-09-18T02:19:06;97925.41;;;20.05;100.00
26807;BME280;14380;49.910;6.792;2023-09-18T02:21:33;97928.53;;;19.84;100.00
26807;BME280;14380;49.910;6.792;2023-09-18T02:24:00;97932.78;;;19.95;100.00
26807;BME280;14380;49.910;6.792;2023-09-18T02:26:27;97924.00;;;19.84;100.00
26807;BME280;14380;49.910;6.792;2023-09-18T02:28:54;97925.53;;;19.87;100.00
26807;BME280;14380;49.910;6.792;2023-09-18T02:31:21;97928.69;;;19.82;100.00
26807;BME280;14380;49.910;6.792;2023-09-18T02:33:49;97929.84;;;19.71;100.00
26807;BME280;14380;49.910;6.792;2023-09-18T02:36:16;97935.19;;;19.63;100.00
26807;BME280;14380;49.910;6.792;2023-09-18T02:38:42;97933.22;;;19.82;100.00
26807;BME280;14380;49.910;6.792;2023-09-18T02:41:09;97923.63;;;19.71;100.00
26807;BME280;14380;49.910;6.792;2023-09-18T02:43:36;97924.50;;;19.71;100.00
26807;BME280;14380;49.910;6.792;2023-09-18T02:46:03;97939.03;;;19.60;100.00
26807;BME280;14380;49.910;6.792;2023-09-18T02:48:30;97934.00;;;19.57;100.00
26807;BME280;14380;49.910;6.792;2023-09-18T02:50:58;97946.50;;;19.49;100.00
26807;BME280;14380;49.910;6.792;2023-09-18T02:53:25;97942.03;;;19.66;100.00
26807;BME280;14380;49.910;6.792;2023-09-18T02:55:52;97940.50;;;19.55;100.00
26807;BME280;14380;49.910;6.792;2023-09-18T02:58:20;97948.19;;;19.50;100.00
26807;BME280;14380;49.910;6.792;2023-09-18T03:00:49;97941.50;;;19.54;100.00
26807;BME280;14380;49.910;6.792;2023-09-18T03:03:16;97934.16;;;19.56;100.00
26807;BME280;14380;49.910;6.792;2023-09-18T03:05:44;97925.66;;;19.77;100.00
26807;BME280;14380;49.910;6.792;2023-09-18T03:08:13;97927.34;;;19.78;100.00
26807;BME280;14380;49.910;6.792;2023-09-18T03:10:41;97923.50;;;19.72;100.00
26807;BME280;14380;49.910;6.792;2023-09-18T03:13:08;97926.16;;;19.72;100.00
26807;BME280;14380;49.910;6.792;2023-09-18T03:15:35;97920.63;;;19.66;100.00
26807;BME280;14380;49.910;6.792;2023-09-18T03:18:03;97927.00;;;19.73;100.00
26807;BME280;14380;49.910;6.792;2023-09-18T03:20:31;97919.47;;;19.68;100.00
26807;BME280;14380;49.910;6.792;2023-09-18T03:22:58;97914.63;;;19.80;100.00
26807;BME280;14380;49.910;6.792;2023-09-18T03:25:27;97918.81;;;19.74;100.00
26807;BME280;14380;49.910;6.792;2023-09-18T03:27:55;97921.66;;;19.65;100.00
26807;BME280;14380;49.910;6.792;2023-09-18T03:30:23;97918.97;;;19.81;100.00
26807;BME280;14380;49.910;6.792;2023-09-18T03:32:50;97917.97;;;19.82;100.00
26807;BME280;14380;49.910;6.792;2023-09-18T03:35:16;97908.59;;;19.61;100.00
26807;BME280;14380;49.910;6.792;2023-09-18T03:37:44;97899.38;;;19.72;100.00
26807;BME280;14380;49.910;6.792;2023-09-18T03:40:11;97898.50;;;19.47;100.00
26807;BME280;14380;49.910;6.792;2023-09-18T03:42:39;97894.63;;;19.41;100.00
26807;BME280;14380;49.910;6.792;2023-09-18T03:45:07;97897.06;;;19.77;100.00
26807;BME280;14380;49.910;6.792;2023-09-18T03:47:34;97898.81;;;19.44;100.00
26807;BME280;14380;49.910;6.792;2023-09-18T03:50:01;97892.50;;;19.53;100.00
26807;BME280;14380;49.910;6.792;2023-09-18T03:52:28;97883.94;;;19.58;100.00
26807;BME280;14380;49.910;6.792;2023-09-18T03:54:54;97881.47;;;19.65;100.00
26807;BME280;14380;49.910;6.792;2023-09-18T03:57:21;97873.25;;;19.66;100.00
26807;BME280;14380;49.910;6.792;2023-09-18T03:59:49;97879.06;;;19.45;100.00
26807;BME280;14380;49.910;6.792;2023-09-18T04:02:15;97856.00;;;19.52;100.00
26807;BME280;14380;49.910;6.792;2023-09-18T04:04:42;97840.28;;;19.66;100.00
26807;BME280;14380;49.910;6.792;2023-09-18T04:07:08;97818.19;;;19.47;100.00
26807;BME280;14380;49.910;6.792;2023-09-18T04:09:35;97817.53;;;19.53;100.00
26807;BME280;14380;49.910;6.792;2023-09-18T04:12:02;97816.53;;;19.54;100.00
26807;BME280;14380;49.910;6.792;2023-09-18T04:14:30;97841.44;;;19.38;100.00
26807;BME280;14380;49.910;6.792;2023-09-18T04:16:58;97846.44;;;19.50;100.00
26807;BME280;14380;49.910;6.792;2023-09-18T04:19:25;97857.50;;;19.55;100.00
26807;BME280;14380;49.910;6.792;2023-09-18T04:21:52;97859.00;;;19.49;100.00
26807;BME280;14380;49.910;6.792;2023-09-18T04:24:18;97835.91;;;19.40;100.00
26807;BME280;14380;49.910;6.792;2023-09-18T04:26:45;97849.66;;;19.53;100.00
26807;BME280;14380;49.910;6.792;2023-09-18T04:29:11;97853.34;;;19.60;100.00
26807;BME280;14380;49.910;6.792;2023-09-18T04:31:38;97862.88;;;19.63;100.00
26807;BME280;14380;49.910;6.792;2023-09-18T04:34:06;97866.72;;;19.52;100.00
26807;BME280;14380;49.910;6.792;2023-09-18T04:36:32;97882.22;;;19.32;100.00
26807;BME280;14380;49.910;6.792;2023-09-18T04:38:59;97884.63;;;19.60;100.00
26807;BME280;14380;49.910;6.792;2023-09-18T04:41:25;97890.78;;;19.44;100.00
26807;BME280;14380;49.910;6.792;2023-09-18T04:43:52;97894.47;;;19.43;100.00
26807;BME280;14380;49.910;6.792;2023-09-18T04:46:18;97907.47;;;19.29;100.00
26807;BME280;14380;49.910;6.792;2023-09-18T04:48:45;97895.13;;;19.37;100.00
26807;BME280;14380;49.910;6.792;2023-09-18T04:51:13;97888.97;;;19.61;100.00
26807;BME280;14380;49.910;6.792;2023-09-18T04:53:39;97886.59;;;19.50;100.00
26807;BME280;14380;49.910;6.792;2023-09-18T04:56:06;97885.28;;;19.54;100.00
26807;BME280;14380;49.910;6.792;2023-09-18T04:58:33;97892.19;;;19.65;100.00
26807;BME280;14380;49.910;6.792;2023-09-18T05:01:02;97893.66;;;19.59;100.00
26807;BME280;14380;49.910;6.792;2023-09-18T05:03:30;97893.69;;;19.67;100.00
26807;BME280;14380;49.910;6.792;2023-09-18T05:05:56;97902.03;;;19.56;100.00
26807;BME280;14380;49.910;6.792;2023-09-18T05:08:24;97899.53;;;19.63;100.00
26807;BME280;14380;49.910;6.792;2023-09-18T05:10:51;97902.47;;;19.35;100.00
26807;BME280;14380;49.910;6.792;2023-09-18T05:13:17;97899.28;;;19.31;100.00
26807;BME280;14380;49.910;6.792;2023-09-18T05:15:44;97904.03;;;19.62;100.00
26807;BME280;14380;49.910;6.792;2023-09-18T05:18:10;97905.34;;;19.50;100.00
26807;BME280;14380;49.910;6.792;2023-09-18T05:20:37;97900.66;;;19.52;100.00
26807;BME280;14380;49.910;6.792;2023-09-18T05:23:03;97899.31;;;19.39;100.00
26807;BME280;14380;49.910;6.792;2023-09-18T05:25:31;97902.50;;;19.43;100.00
26807;BME280;14380;49.910;6.792;2023-09-18T05:27:59;97899.66;;;19.53;100.00
26807;BME280;14380;49.910;6.792;2023-09-18T05:30:28;97905.34;;;19.50;100.00
26807;BME280;14380;49.910;6.792;2023-09-18T05:32:56;97893.50;;;19.52;100.00
26807;BME280;14380;49.910;6.792;2023-09-18T05:35:23;97896.28;;;19.34;100.00
26807;BME280;14380;49.910;6.792;2023-09-18T05:37:50;97892.78;;;19.42;100.00
26807;BME280;14380;49.910;6.792;2023-09-18T05:40:17;97887.44;;;19.42;100.00
26807;BME280;14380;49.910;6.792;2023-09-18T05:42:46;97879.22;;;19.43;100.00
26807;BME280;14380;49.910;6.792;2023-09-18T05:45:13;97874.56;;;19.54;100.00
26807;BME280;14380;49.910;6.792;2023-09-18T05:47:40;97879.69;;;19.30;100.00
26807;BME280;14380;49.910;6.792;2023-09-18T05:50:08;97890.13;;;19.50;100.00
26807;BME280;14380;49.910;6.792;2023-09-18T05:52:40;97874.66;;;19.27;100.00
26807;BME280;14380;49.910;6.792;2023-09-18T05:55:07;97883.72;;;19.35;100.00
26807;BME280;14380;49.910;6.792;2023-09-18T05:57:34;97893.28;;;19.37;100.00
26807;BME280;14380;49.910;6.792;2023-09-18T06:00:02;97893.09;;;19.39;100.00
26807;BME280;14380;49.910;6.792;2023-09-18T06:02:29;97899.22;;;19.74;100.00
26807;BME280;14380;49.910;6.792;2023-09-18T06:04:55;97910.41;;;19.61;100.00
26807;BME280;14380;49.910;6.792;2023-09-18T06:07:23;97906.38;;;19.57;100.00
26807;BME280;14380;49.910;6.792;2023-09-18T06:09:50;97907.06;;;19.59;100.00
26807;BME280;14380;49.910;6.792;2023-09-18T06:12:16;97912.94;;;19.71;100.00
26807;BME280;14380;49.910;6.792;2023-09-18T06:14:43;97916.09;;;19.66;100.00
26807;BME280;14380;49.910;6.792;2023-09-18T06:17:11;97906.75;;;19.70;100.00
26807;BME280;14380;49.910;6.792;2023-09-18T06:19:39;97923.81;;;19.69;100.00
26807;BME280;14380;49.910;6.792;2023-09-18T06:22:06;97926.31;;;19.71;100.00
26807;BME280;14380;49.910;6.792;2023-09-18T06:24:33;97936.56;;;19.75;100.00
26807;BME280;14380;49.910;6.792;2023-09-18T06:27:00;97938.53;;;19.65;100.00
26807;BME280;14380;49.910;6.792;2023-09-18T06:29:27;97939.38;;;19.74;100.00
26807;BME280;14380;49.910;6.792;2023-09-18T06:31:53;97939.72;;;19.71;100.00
26807;BME280;14380;49.910;6.792;2023-09-18T06:34:21;97946.25;;;19.68;100.00
26807;BME280;14380;49.910;6.792;2023-09-18T06:36:48;97938.56;;;19.73;100.00
26807;BME280;14380;49.910;6.792;2023-09-18T06:39:15;97932.03;;;19.76;100.00
26807;BME280;14380;49.910;6.792;2023-09-18T06:41:41;97938.22;;;19.68;100.00
26807;BME280;14380;49.910;6.792;2023-09-18T06:44:08;97944.16;;;19.88;100.00
26807;BME280;14380;49.910;6.792;2023-09-18T06:46:34;97940.97;;;19.93;100.00
26807;BME280;14380;49.910;6.792;2023-09-18T06:49:01;97947.84;;;19.96;100.00
26807;BME280;14380;49.910;6.792;2023-09-18T06:51:30;97945.50;;;20.01;100.00
26807;BME280;14380;49.910;6.792;2023-09-18T06:53:56;97943.63;;;19.93;100.00
26807;BME280;14380;49.910;6.792;2023-09-18T06:56:23;97940.81;;;19.95;100.00
26807;BME280;14380;49.910;6.792;2023-09-18T06:58:50;97960.16;;;19.80;100.00
26807;BME280;14380;49.910;6.792;2023-09-18T07:01:17;97960.16;;;19.80;100.00
26807;BME280;14380;49.910;6.792;2023-09-18T07:03:44;97961.63;;;19.66;100.00
26807;BME280;14380;49.910;6.792;2023-09-18T07:06:12;97953.16;;;19.87;100.00
26807;BME280;14380;49.910;6.792;2023-09-18T07:08:40;97946.00;;;19.96;100.00
26807;BME280;14380;49.910;6.792;2023-09-18T07:11:07;97957.03;;;19.93;100.00
26807;BME280;14380;49.910;6.792;2023-09-18T07:13:33;97972.47;;;20.08;100.00
26807;BME280;14380;49.910;6.792;2023-09-18T07:16:00;97956.22;;;20.09;100.00
26807;BME280;14380;49.910;6.792;2023-09-18T07:18:29;97965.13;;;20.26;100.00
26807;BME280;14380;49.910;6.792;2023-09-18T07:20:55;97980.88;;;20.29;100.00
26807;BME280;14380;49.910;6.792;2023-09-18T07:23:22;97988.88;;;20.04;100.00
26807;BME280;14380;49.910;6.792;2023-09-18T07:25:50;97987.75;;;20.32;100.00
26807;BME280;14380;49.910;6.792;2023-09-18T07:28:16;97983.22;;;20.41;100.00
26807;BME280;14380;49.910;6.792;2023-09-18T07:30:44;97989.09;;;20.36;100.00
26807;BME280;14380;49.910;6.792;2023-09-18T07:33:11;98006.03;;;20.28;100.00
26807;BME280;14380;49.910;6.792;2023-09-18T07:35:38;98015.91;;;20.36;100.00
26807;BME280;14380;49.910;6.792;2023-09-18T07:38:04;98004.16;;;20.20;100.00
26807;BME280;14380;49.910;6.792;2023-09-18T07:40:31;97994.13;;;20.31;100.00
26807;BME280;14380;49.910;6.792;2023-09-18T07:42:59;97986.91;;;20.48;100.00
26807;BME280;14380;49.910;6.792;2023-09-18T07:45:25;97979.69;;;20.24;100.00
26807;BME280;14380;49.910;6.792;2023-09-18T07:47:52;97994.13;;;20.31;100.00
26807;BME280;14380;49.910;6.792;2023-09-18T07:50:18;97999.84;;;20.53;100.00
26807;BME280;14380;49.910;6.792;2023-09-18T07:52:45;97997.75;;;20.13;100.00
26807;BME280;14380;49.910;6.792;2023-09-18T07:55:11;97993.09;;;20.32;100.00
26807;BME280;14380;49.910;6.792;2023-09-18T07:57:38;97993.44;;;20.37;100.00
26807;BME280;14380;49.910;6.792;2023-09-18T08:00:07;98002.47;;;20.28;100.00
26807;BME280;14380;49.910;6.792;2023-09-18T08:02:37;98000.97;;;20.17;100.00
26807;BME280;14380;49.910;6.792;2023-09-18T08:05:04;97999.47;;;20.31;100.00
26807;BME280;14380;49.910;6.792;2023-09-18T08:07:31;97996.47;;;20.34;100.00
26807;BME280;14380;49.910;6.792;2023-09-18T08:09:58;98006.00;;;20.36;100.00
26807;BME280;14380;49.910;6.792;2023-09-18T08:12:24;97999.81;;;20.36;100.00
26807;BME280;14380;49.910;6.792;2023-09-18T08:14:51;98005.34;;;20.43;100.00
26807;BME280;14380;49.910;6.792;2023-09-18T08:17:19;98006.16;;;20.18;100.00
26807;BME280;14380;49.910;6.792;2023-09-18T08:19:45;98015.06;;;20.27;100.00
26807;BME280;14380;49.910;6.792;2023-09-18T08:22:13;98017.75;;;20.52;100.00
26807;BME280;14380;49.910;6.792;2023-09-18T08:24:41;98036.81;;;20.32;100.00
26807;BME280;14380;49.910;6.792;2023-09-18T08:27:10;98028.66;;;20.42;100.00
26807;BME280;14380;49.910;6.792;2023-09-18T08:29:37;98034.31;;;20.31;100.00
26807;BME280;14380;49.910;6.792;2023-09-18T08:32:03;98028.56;;;19.93;100.00
26807;BME280;14380;49.910;6.792;2023-09-18T08:34:31;98038.88;;;20.55;100.00
26807;BME280;14380;49.910;6.792;2023-09-18T08:36:58;98027.97;;;20.48;100.00
26807;BME280;14380;49.910;6.792;2023-09-18T08:39:24;98049.13;;;20.52;100.00
26807;BME280;14380;49.910;6.792;2023-09-18T08:41:54;98055.44;;;20.34;100.00
26807;BME280;14380;49.910;6.792;2023-09-18T08:44:26;98052.44;;;20.54;100.00
26807;BME280;14380;49.910;6.792;2023-09-18T08:46:53;98057.00;;;20.70;100.00
26807;BME280;14380;49.910;6.792;2023-09-18T08:49:21;98049.09;;;20.43;100.00
26807;BME280;14380;49.910;6.792;2023-09-18T08:51:51;98041.22;;;20.67;100.00
26807;BME280;14380;49.910;6.792;2023-09-18T08:54:17;98056.28;;;20.43;100.00
26807;BME280;14380;49.910;6.792;2023-09-18T08:56:44;98057.28;;;20.42;100.00
26807;BME280;14380;49.910;6.792;2023-09-18T08:59:11;98051.94;;;20.58;100.00
26807;BME280;14380;49.910;6.792;2023-09-18T09:01:38;98056.81;;;20.71;100.00
26807;BME280;14380;49.910;6.792;2023-09-18T09:04:05;98040.91;;;20.70;100.00
26807;BME280;14380;49.910;6.792;2023-09-18T09:06:32;98048.75;;;20.55;100.00
26807;BME280;14380;49.910;6.792;2023-09-18T09:08:59;98059.81;;;20.60;100.00
26807;BME280;14380;49.910;6.792;2023-09-18T09:11:27;98062.94;;;20.14;100.00
26807;BME280;14380;49.910;6.792;2023-09-18T09:14:09;98057.94;;;20.35;100.00
26807;BME280;14380;49.910;6.792;2023-09-18T09:16:38;98056.78;;;20.30;100.00
26807;BME280;14380;49.910;6.792;2023-09-18T09:19:05;98060.91;;;20.08;100.00
26807;BME280;14380;49.910;6.792;2023-09-18T09:21:39;98053.44;;;20.44;100.00
26807;BME280;14380;49.910;6.792;2023-09-18T09:24:07;98056.47;;;20.41;100.00
26807;BME280;14380;49.910;6.792;2023-09-18T09:26:33;98052.63;;;20.60;100.00
26807;BME280;14380;49.910;6.792;2023-09-18T09:29:14;98044.41;;;20.62;100.00
26807;BME280;14380;49.910;6.792;2023-09-18T09:31:43;98053.97;;;20.56;100.00
26807;BME280;14380;49.910;6.792;2023-09-18T09:34:09;98058.81;;;20.61;100.00
26807;BME280;14380;49.910;6.792;2023-09-18T09:36:36;98063.66;;;20.41;100.00
26807;BME280;14380;49.910;6.792;2023-09-18T09:39:03;98059.50;;;20.46;100.00
26807;BME280;14380;49.910;6.792;2023-09-18T09:41:32;98059.16;;;20.49;100.00
26807;BME280;14380;49.910;6.792;2023-09-18T09:43:59;98056.31;;;20.68;100.00
26807;BME280;14380;49.910;6.792;2023-09-18T09:46:26;98061.19;;;20.72;100.00
26807;BME280;14380;49.910;6.792;2023-09-18T09:49:00;98066.50;;;20.56;100.00
26807;BME280;14380;49.910;6.792;2023-09-18T09:51:27;98060.50;;;20.45;100.00
26807;BME280;14380;49.910;6.792;2023-09-18T09:53:54;98071.72;;;20.49;100.00
26807;BME280;14380;49.910;6.792;2023-09-18T09:56:20;98077.28;;;20.72;100.00
26807;BME280;14380;49.910;6.792;2023-09-18T09:59:01;98083.16;;;20.68;100.00
26807;BME280;14380;49.910;6.792;2023-09-18T10:01:31;98086.00;;;20.74;100.00
26807;BME280;14380;49.910;6.792;2023-09-18T10:03:58;98093.22;;;20.74;100.00
26807;BME280;14380;49.910;6.792;2023-09-18T10:06:27;98085.69;;;21.10;100.00
26807;BME280;14380;49.910;6.792;2023-09-18T10:08:56;98087.34;;;21.36;100.00
26807;BME280;14380;49.910;6.792;2023-09-18T10:11:24;98084.19;;;21.00;100.00
26807;BME280;14380;49.910;6.792;2023-09-18T10:13:58;98082.66;;;21.05;100.00
26807;BME280;14380;49.910;6.792;2023-09-18T10:16:30;98086.53;;;21.11;100.00
26807;BME280;14380;49.910;6.792;2023-09-18T10:19:03;98089.84;;;21.21;100.00
26807;BME280;14380;49.910;6.792;2023-09-18T10:21:41;98090.53;;;20.82;100.00
26807;BME280;14380;49.910;6.792;2023-09-18T10:24:17;98092.72;;;21.12;100.00
26807;BME280;14380;49.910;6.792;2023-09-18T10:26:51;98090.88;;;21.04;100.00
26807;BME280;14380;49.910;6.792;2023-09-18T10:29:22;98096.75;;;20.99;100.00
26807;BME280;14380;49.910;6.792;2023-09-18T10:31:50;98089.38;;;21.18;100.00
26807;BME280;14380;49.910;6.792;2023-09-18T10:34:18;98078.63;;;21.26;100.00
26807;BME280;14380;49.910;6.792;2023-09-18T10:36:47;98068.31;;;21.54;100.00
26807;BME280;14380;49.910;6.792;2023-09-18T10:39:14;98070.19;;;22.02;100.00
26807;BME280;14380;49.910;6.792;2023-09-18T10:41:47;98059.81;;;22.22;100.00
26807;BME280;14380;49.910;6.792;2023-09-18T10:44:14;98060.03;;;22.44;100.00
26807;BME280;14380;49.910;6.792;2023-09-18T10:46:40;98049.38;;;22.74;100.00
26807;BME280;14380;49.910;6.792;2023-09-18T10:49:08;98053.78;;;23.13;100.00
26807;BME280;14380;49.910;6.792;2023-09-18T10:51:37;98068.34;;;22.81;100.00
26807;BME280;14380;49.910;6.792;2023-09-18T10:54:07;98062.31;;;22.55;100.00
26807;BME280;14380;49.910;6.792;2023-09-18T10:56:34;98055.16;;;22.71;100.00
26807;BME280;14380;49.910;6.792;2023-09-18T10:59:02;98056.94;;;22.55;100.00
26807;BME280;14380;49.910;6.792;2023-09-18T11:01:29;98052.88;;;22.60;100.00
26807;BME280;14380;49.910;6.792;2023-09-18T11:03:57;98043.88;;;22.91;100.00
26807;BME280;14380;49.910;6.792;2023-09-18T11:06:28;98044.78;;;22.83;100.00
26807;BME280;14380;49.910;6.792;2023-09-18T11:08:59;98051.97;;;22.67;100.00
26807;BME280;14380;49.910;6.792;2023-09-18T11:11:30;98046.47;;;23.22;100.00
26807;BME280;14380;49.910;6.792;2023-09-18T11:13:58;98046.22;;;23.62;100.00
26807;BME280;14380;49.910;6.792;2023-09-18T11:16:36;98051.13;;;23.58;100.00
26807;BME280;14380;49.910;6.792;2023-09-18T11:19:16;98037.63;;;24.03;100.00
26807;BME280;14380;49.910;6.792;2023-09-18T11:21:46;98045.44;;;23.83;100.00
26807;BME280;14380;49.910;6.792;2023-09-18T11:24:17;98042.66;;;23.76;100.00
26807;BME280;14380;49.910;6.792;2023-09-18T11:26:45;98031.09;;;24.34;100.00
26807;BME280;14380;49.910;6.792;2023-09-18T11:29:14;98040.47;;;24.60;100.00
26807;BME280;14380;49.910;6.792;2023-09-18T11:31:45;98048.09;;;24.50;100.00
26807;BME280;14380;49.910;6.792;2023-09-18T11:34:13;98050.91;;;24.42;100.00
26807;BME280;14380;49.910;6.792;2023-09-18T11:36:40;98050.34;;;24.90;100.00
26807;BME280;14380;49.910;6.792;2023-09-18T11:39:09;98055.34;;;24.71;100.00
26807;BME280;14380;49.910;6.792;2023-09-18T11:41:37;98050.00;;;24.56;98.42
26807;BME280;14380;49.910;6.792;2023-09-18T11:44:38;98032.13;;;24.55;100.00
26807;BME280;14380;49.910;6.792;2023-09-18T11:47:09;98019.28;;;24.35;96.01
26807;BME280;14380;49.910;6.792;2023-09-18T11:49:46;98006.94;;;24.70;98.39
26807;BME280;14380;49.910;6.792;2023-09-18T11:52:15;97995.50;;;24.68;94.93
26807;BME280;14380;49.910;6.792;2023-09-18T11:54:44;97991.16;;;25.23;97.50
26807;BME280;14380;49.910;6.792;2023-09-18T11:57:12;97991.91;;;25.11;92.16
26807;BME280;14380;49.910;6.792;2023-09-18T11:59:40;97984.34;;;24.99;95.95
26807;BME280;14380;49.910;6.792;2023-09-18T12:02:08;97975.41;;;25.34;91.72
26807;BME280;14380;49.910;6.792;2023-09-18T12:04:35;97978.34;;;24.75;90.69
26807;BME280;14380;49.910;6.792;2023-09-18T12:07:03;97976.34;;;24.62;91.12
26807;BME280;14380;49.910;6.792;2023-09-18T12:09:30;97976.28;;;25.06;92.19
26807;BME280;14380;49.910;6.792;2023-09-18T12:11:58;97986.88;;;25.43;94.15
26807;BME280;14380;49.910;6.792;2023-09-18T12:14:30;97993.13;;;25.85;91.84
26807;BME280;14380;49.910;6.792;2023-09-18T12:16:56;97989.13;;;25.39;91.58
26807;BME280;14380;49.910;6.792;2023-09-18T12:19:23;97990.13;;;24.96;91.75
26807;BME280;14380;49.910;6.792;2023-09-18T12:21:51;97995.78;;;25.01;92.25
26807;BME280;14380;49.910;6.792;2023-09-18T12:24:20;98002.56;;;24.69;91.21
26807;BME280;14380;49.910;6.792;2023-09-18T12:26:47;98000.84;;;24.83;90.13
26807;BME280;14380;49.910;6.792;2023-09-18T12:29:15;98006.97;;;24.98;90.08
26807;BME280;14380;49.910;6.792;2023-09-18T12:31:42;98012.44;;;25.05;91.44
26807;BME280;14380;49.910;6.792;2023-09-18T12:34:14;98006.13;;;24.69;90.86
26807;BME280;14380;49.910;6.792;2023-09-18T12:36:41;98001.94;;;25.52;93.02
26807;BME280;14380;49.910;6.792;2023-09-18T12:39:08;98004.31;;;25.40;89.61
26807;BME280;14380;49.910;6.792;2023-09-18T12:41:36;98005.78;;;24.57;87.56
26807;BME280;14380;49.910;6.792;2023-09-18T12:44:05;98014.22;;;24.26;90.00
26807;BME280;14380;49.910;6.792;2023-09-18T12:46:34;98015.56;;;24.37;89.26
26807;BME280;14380;49.910;6.792;2023-09-18T12:49:14;98003.06;;;24.72;88.66
26807;BME280;14380;49.910;6.792;2023-09-18T12:51:41;98003.06;;;24.72;89.46
26807;BME280;14380;49.910;6.792;2023-09-18T12:54:09;98006.50;;;25.23;89.32
26807;BME280;14380;49.910;6.792;2023-09-18T12:56:41;98002.34;;;25.20;87.77